Time;durP1;ratioP1;P1;durP2;ratioP2;P2;SDS_P1;SDS_P2;PMS_P1;PMS_P2;Temp;Humidity;BMP_temperature;BMP_pressure;BME280_temperature;BME280_humidity;BME280_pressure;Samples;Min_cycle;Max_cycle;Signal;HPM_P1;HPM_P2
2023/03/14 00:00:54;;;;;;;18.77;11.85;;;;;;;;;;5047731;28;20032;-65
2023/03/14 00:03:21;;;;;;;17.83;12.18;;;;;;;;;;5046228;28;20095;-65
2023/03/14 00:05:47;;;;;;;18.50;12.55;;;;;;;;;;5047509;28;20083;-64
2023/03/14 00:08:13;;;;;;;17.77;12.20;;;;;;;;;;4694423;28;9999719;-65
2023/03/14 00:10:39;;;;;;;18.73;13.00;;;;;;;;;;5048515;28;20032;-65
2023/03/14 00:13:05;;;;;;;16.67;11.93;;;;;;;;;;5079745;23;20436;-60
2023/03/14 00:15:32;;;;;;;18.00;12.30;;;;;;;;;;5072979;28;20024;-64
2023/03/14 00:17:58;;;;;;;18.10;12.50;;;;;;;;;;5072799;28;20364;-64
2023/03/14 00:20:24;;;;;;;18.02;12.50;;;;;;;;;;5073051;28;20274;-63
2023/03/14 00:22:50;;;;;;;18.45;12.63;;;;;;;;;;5068125;28;20052;-61
2023/03/14 00:25:16;;;;;;;17.17;12.38;;;;;;;;;;5070620;28;20594;-64
2023/03/14 00:27:42;;;;;;;19.20;13.05;;;;;;;;;;5052798;28;20093;-65
2023/03/14 00:30:09;;;;;;;19.17;13.88;;;;;;;;;;5070912;28;20462;-65
2023/03/14 00:32:35;;;;;;;24.70;14.15;;;;;;;;;;5070215;28;20016;-65
2023/03/14 00:35:01;;;;;;;17.77;12.77;;;;;;;;;;5070061;28;20056;-65
2023/03/14 00:37:27;;;;;;;18.55;13.43;;;;;;;;;;5071518;28;20032;-66
2023/03/14 00:39:53;;;;;;;19.40;13.68;;;;;;;;;;5070072;28;20059;-67
2023/03/14 00:42:19;;;;;;;18.50;12.77;;;;;;;;;;5070089;28;20056;-63
2023/03/14 00:44:45;;;;;;;18.25;12.35;;;;;;;;;;5070007;28;20043;-65
2023/03/14 00:47:11;;;;;;;16.88;12.98;;;;;;;;;;5071569;28;20556;-64
2023/03/14 00:49:37;;;;;;;22.65;12.68;;;;;;;;;;5071460;28;20032;-64
2023/03/14 00:52:03;;;;;;;18.95;12.63;;;;;;;;;;5070292;28;20392;-64
2023/03/14 00:54:30;;;;;;;18.80;12.80;;;;;;;;;;5071149;28;20025;-64
2023/03/14 00:56:56;;;;;;;19.67;12.43;;;;;;;;;;5071319;28;20016;-66
2023/03/14 00:59:22;;;;;;;17.90;13.38;;;;;;;;;;5071542;28;20538;-67
2023/03/14 01:01:48;;;;;;;17.08;12.38;;;;;;;;;;5071583;28;20036;-65
2023/03/14 01:04:14;;;;;;;18.95;11.88;;;;;;;;;;5069977;28;20177;-64
2023/03/14 01:06:40;;;;;;;17.25;12.43;;;;;;;;;;5071471;28;20028;-63
2023/03/14 01:09:06;;;;;;;17.08;12.32;;;;;;;;;;5071539;28;20024;-63
2023/03/14 01:11:33;;;;;;;18.75;12.68;;;;;;;;;;5071703;28;20400;-64
2023/03/14 01:14:00;;;;;;;16.58;12.27;;;;;;;;;;5069992;28;20032;-64
2023/03/14 01:16:29;;;;;;;17.67;11.82;;;;;;;;;;5070307;28;20031;-63
2023/03/14 01:18:55;;;;;;;18.27;12.02;;;;;;;;;;5070198;28;20082;-64
2023/03/14 01:21:25;;;;;;;16.73;11.63;;;;;;;;;;5071377;28;20037;-64
2023/03/14 01:23:52;;;;;;;15.95;11.52;;;;;;;;;;5070077;28;20056;-64
2023/03/14 01:26:20;;;;;;;15.98;11.65;;;;;;;;;;5073091;28;20027;-61
2023/03/14 01:28:47;;;;;;;17.65;11.63;;;;;;;;;;5073679;28;20028;-65
2023/03/14 01:31:13;;;;;;;17.73;11.82;;;;;;;;;;5074793;28;20437;-65
2023/03/14 01:33:40;;;;;;;18.55;11.95;;;;;;;;;;5073291;28;20036;-65
2023/03/14 01:36:06;;;;;;;20.48;11.07;;;;;;;;;;5073332;28;20036;-65
2023/03/14 01:38:33;;;;;;;19.70;11.50;;;;;;;;;;5073662;28;20503;-65
2023/03/14 01:41:00;;;;;;;19.88;11.40;;;;;;;;;;5073389;28;20036;-63
2023/03/14 01:43:26;;;;;;;19.33;11.43;;;;;;;;;;5072852;28;20389;-64
2023/03/14 01:45:58;;;;;;;17.60;11.73;;;;;;;;;;5074668;28;20021;-63
2023/03/14 01:48:25;;;;;;;16.60;12.45;;;;;;;;;;5074753;28;20025;-63
2023/03/14 01:50:52;;;;;;;19.08;15.70;;;;;;;;;;5073225;28;20033;-64
2023/03/14 01:53:21;;;;;;;26.50;18.92;;;;;;;;;;5074293;28;20032;-64
2023/03/14 01:55:47;;;;;;;26.35;24.05;;;;;;;;;;5074531;28;20108;-64
2023/03/14 01:58:13;;;;;;;46.70;43.08;;;;;;;;;;5074504;28;20499;-63
2023/03/14 02:00:39;;;;;;;50.65;47.00;;;;;;;;;;5074349;28;20536;-62
2023/03/14 02:03:12;;;;;;;59.85;55.85;;;;;;;;;;5073978;28;20028;-58
2023/03/14 02:05:39;;;;;;;56.88;52.25;;;;;;;;;;5074394;28;20030;-59
2023/03/14 02:08:07;;;;;;;47.80;44.25;;;;;;;;;;5072906;28;20033;-60
2023/03/14 02:10:36;;;;;;;43.47;40.17;;;;;;;;;;5074021;28;20029;-63
2023/03/14 02:13:03;;;;;;;44.92;41.38;;;;;;;;;;5073492;28;20060;-61
2023/03/14 02:15:30;;;;;;;44.05;40.42;;;;;;;;;;5073957;28;20031;-64
2023/03/14 02:17:57;;;;;;;39.00;35.78;;;;;;;;;;5074355;28;20021;-61
2023/03/14 02:20:43;;;;;;;38.80;35.50;;;;;;;;;;5073828;28;20389;-64
2023/03/14 02:23:09;;;;;;;36.03;33.13;;;;;;;;;;5072282;28;20025;-64
2023/03/14 02:25:38;;;;;;;35.05;32.22;;;;;;;;;;5073541;28;20024;-62
2023/03/14 02:28:04;;;;;;;34.05;31.10;;;;;;;;;;5073558;28;20503;-64
2023/03/14 02:30:31;;;;;;;34.50;31.50;;;;;;;;;;5072225;28;20116;-63
2023/03/14 02:33:11;;;;;;;34.15;31.23;;;;;;;;;;5073415;28;20099;-63
2023/03/14 02:35:40;;;;;;;33.88;30.98;;;;;;;;;;5073141;28;20032;-64
2023/03/14 02:38:06;;;;;;;32.67;29.92;;;;;;;;;;5072137;28;20047;-64
2023/03/14 02:40:32;;;;;;;33.10;30.30;;;;;;;;;;5072239;28;20020;-63
2023/03/14 02:42:58;;;;;;;33.65;30.70;;;;;;;;;;5072203;28;20073;-64
2023/03/14 02:45:24;;;;;;;33.13;30.33;;;;;;;;;;5072136;28;20493;-62
2023/03/14 02:47:54;;;;;;;32.95;30.13;;;;;;;;;;5073301;28;20024;-63
2023/03/14 02:50:22;;;;;;;32.83;29.92;;;;;;;;;;5073298;28;20055;-62
2023/03/14 02:52:49;;;;;;;32.83;29.92;;;;;;;;;;5072005;28;20027;-62
2023/03/14 02:55:15;;;;;;;32.83;30.02;;;;;;;;;;5071805;28;20029;-63
2023/03/14 02:57:41;;;;;;;32.40;29.38;;;;;;;;;;5073233;28;20396;-63
2023/03/14 03:00:08;;;;;;;31.85;28.90;;;;;;;;;;5071678;28;20025;-62
2023/03/14 03:02:34;;;;;;;32.13;29.17;;;;;;;;;;5073072;28;20074;-63
2023/03/14 03:05:00;;;;;;;30.33;27.52;;;;;;;;;;5071670;28;20024;-65
2023/03/14 03:07:26;;;;;;;31.02;28.38;;;;;;;;;;5071766;28;20028;-64
2023/03/14 03:09:51;;;;;;;30.63;28.13;;;;;;;;;;5071513;28;20338;-63
2023/03/14 03:12:17;;;;;;;31.30;28.50;;;;;;;;;;5071661;28;20024;-64
2023/03/14 03:14:43;;;;;;;30.20;27.70;;;;;;;;;;5072456;28;20139;-64
2023/03/14 03:17:09;;;;;;;31.35;28.65;;;;;;;;;;5073062;28;20029;-64
2023/03/14 03:19:35;;;;;;;28.83;26.35;;;;;;;;;;5072807;28;20119;-64
2023/03/14 03:22:02;;;;;;;30.17;27.38;;;;;;;;;;5071510;28;20062;-63
2023/03/14 03:24:28;;;;;;;28.90;26.33;;;;;;;;;;5072305;28;20059;-64
2023/03/14 03:26:54;;;;;;;29.00;26.42;;;;;;;;;;5072649;28;20055;-64
2023/03/14 03:29:20;;;;;;;28.58;26.08;;;;;;;;;;5071244;28;20060;-64
2023/03/14 03:31:46;;;;;;;27.42;24.58;;;;;;;;;;5072489;28;20036;-62
2023/03/14 03:34:13;;;;;;;25.83;23.45;;;;;;;;;;5071995;28;20025;-64
2023/03/14 03:36:38;;;;;;;24.40;21.88;;;;;;;;;;5072377;28;20035;-64
2023/03/14 03:39:04;;;;;;;24.05;21.50;;;;;;;;;;5072474;28;20025;-62
2023/03/14 03:41:31;;;;;;;22.80;20.58;;;;;;;;;;5072488;28;20032;-64
2023/03/14 03:43:57;;;;;;;21.00;18.80;;;;;;;;;;5071998;28;20025;-63
2023/03/14 03:46:23;;;;;;;20.60;18.50;;;;;;;;;;5072537;28;20385;-63
2023/03/14 03:48:54;;;;;;;21.90;18.70;;;;;;;;;;5071989;28;20021;-64
2023/03/14 03:51:20;;;;;;;20.73;18.42;;;;;;;;;;5072572;28;20500;-61
2023/03/14 03:53:46;;;;;;;20.33;18.23;;;;;;;;;;5072114;28;20021;-64
2023/03/14 03:56:12;;;;;;;22.30;18.85;;;;;;;;;;5070892;28;20035;-65
2023/03/14 03:58:38;;;;;;;21.98;18.83;;;;;;;;;;5072408;28;20067;-64
2023/03/14 04:01:05;;;;;;;22.38;18.58;;;;;;;;;;5072563;28;20024;-59
2023/03/14 04:03:31;;;;;;;21.88;18.83;;;;;;;;;;5070963;28;20707;-63
2023/03/14 04:06:05;;;;;;;22.38;18.63;;;;;;;;;;5072146;28;20039;-64
2023/03/14 04:08:31;;;;;;;25.00;19.10;;;;;;;;;;5072132;28;20056;-63
2023/03/14 04:10:58;;;;;;;22.08;17.60;;;;;;;;;;5071770;28;20021;-62
2023/03/14 04:13:24;;;;;;;22.35;17.40;;;;;;;;;;5071771;28;20481;-63
2023/03/14 04:15:51;;;;;;;28.45;19.45;;;;;;;;;;5076975;28;20036;-62
2023/03/14 04:18:17;;;;;;;23.80;18.65;;;;;;;;;;5072054;28;20036;-63
2023/03/14 04:20:43;;;;;;;20.42;17.10;;;;;;;;;;5071936;28;20025;-62
2023/03/14 04:23:09;;;;;;;21.77;18.40;;;;;;;;;;5053566;28;20032;-64
2023/03/14 04:25:35;;;;;;;20.23;17.38;;;;;;;;;;5071774;28;20028;-62
2023/03/14 04:28:03;;;;;;;20.98;16.85;;;;;;;;;;5053787;28;20025;-61
2023/03/14 04:30:29;;;;;;;19.77;16.83;;;;;;;;;;5071837;28;20033;-64
2023/03/14 04:32:55;;;;;;;19.75;16.85;;;;;;;;;;5071505;28;20837;-64
2023/03/14 04:35:21;;;;;;;21.23;17.25;;;;;;;;;;5053348;28;20013;-64
2023/03/14 04:37:48;;;;;;;21.52;17.50;;;;;;;;;;5071698;28;20388;-64
2023/03/14 04:40:15;;;;;;;20.30;16.07;;;;;;;;;;5053614;28;20028;-63
2023/03/14 04:42:41;;;;;;;18.92;16.02;;;;;;;;;;5053813;28;20032;-64
2023/03/14 04:45:07;;;;;;;20.02;16.70;;;;;;;;;;5055256;28;20029;-64
2023/03/14 04:47:33;;;;;;;18.73;15.88;;;;;;;;;;5071690;28;20136;-61
2023/03/14 04:49:59;;;;;;;19.27;15.75;;;;;;;;;;5053847;28;20161;-63
2023/03/14 04:52:26;;;;;;;20.08;15.35;;;;;;;;;;5053780;28;20021;-64
2023/03/14 04:54:52;;;;;;;22.80;15.38;;;;;;;;;;5071613;28;20028;-63
2023/03/14 04:57:18;;;;;;;22.25;15.32;;;;;;;;;;5053476;28;20024;-64
2023/03/14 04:59:44;;;;;;;20.45;15.55;;;;;;;;;;5056027;28;20476;-65
2023/03/14 05:02:10;;;;;;;17.85;14.35;;;;;;;;;;5057324;28;20114;-64
2023/03/14 05:04:36;;;;;;;19.77;15.68;;;;;;;;;;5074965;28;20036;-61
2023/03/14 05:07:02;;;;;;;21.30;16.02;;;;;;;;;;5075102;28;20032;-64
2023/03/14 05:09:28;;;;;;;20.35;15.50;;;;;;;;;;5075314;28;20438;-65
2023/03/14 05:11:54;;;;;;;24.85;16.95;;;;;;;;;;5075001;28;20093;-65
2023/03/14 05:14:20;;;;;;;23.35;16.48;;;;;;;;;;5074524;28;20052;-64
2023/03/14 05:16:46;;;;;;;23.55;16.48;;;;;;;;;;5074957;28;20376;-65
2023/03/14 05:19:12;;;;;;;20.13;15.20;;;;;;;;;;5074795;28;20027;-62
2023/03/14 05:21:38;;;;;;;23.20;16.25;;;;;;;;;;5056986;28;20028;-63
2023/03/14 05:24:04;;;;;;;20.63;15.40;;;;;;;;;;5074629;28;20024;-64
2023/03/14 05:26:30;;;;;;;19.35;15.45;;;;;;;;;;5075259;28;20035;-65
2023/03/14 05:28:56;;;;;;;19.95;14.63;;;;;;;;;;5074736;28;20025;-63
2023/03/14 05:31:22;;;;;;;18.60;14.93;;;;;;;;;;5056732;28;20029;-64
2023/03/14 05:33:48;;;;;;;18.27;15.10;;;;;;;;;;5074373;28;20021;-63
2023/03/14 05:36:14;;;;;;;20.65;15.50;;;;;;;;;;5056819;28;20389;-63
2023/03/14 05:38:40;;;;;;;19.20;15.30;;;;;;;;;;5056932;28;20028;-62
2023/03/14 05:41:06;;;;;;;19.08;15.27;;;;;;;;;;5056667;28;20544;-63
2023/03/14 05:43:32;;;;;;;18.92;15.45;;;;;;;;;;5056222;28;20476;-64
2023/03/14 05:45:58;;;;;;;17.83;15.10;;;;;;;;;;5056691;28;20021;-64
2023/03/14 05:48:24;;;;;;;17.95;15.20;;;;;;;;;;5074734;28;20476;-61
2023/03/14 05:50:59;;;;;;;17.33;14.73;;;;;;;;;;5074739;28;20086;-63
2023/03/14 05:53:26;;;;;;;18.10;15.40;;;;;;;;;;5074035;28;20020;-63
2023/03/14 05:55:55;;;;;;;18.38;16.15;;;;;;;;;;5056072;28;20108;-64
2023/03/14 05:58:21;;;;;;;18.02;15.55;;;;;;;;;;5056132;28;20044;-64
2023/03/14 06:00:48;;;;;;;18.70;15.65;;;;;;;;;;5074452;28;20056;-63
2023/03/14 06:03:13;;;;;;;18.23;16.20;;;;;;;;;;5073870;28;20029;-63
2023/03/14 06:05:39;;;;;;;17.75;15.80;;;;;;;;;;5073896;28;20028;-64
2023/03/14 06:08:06;;;;;;;17.67;15.77;;;;;;;;;;5074029;28;20070;-63
2023/03/14 06:10:31;;;;;;;17.65;15.80;;;;;;;;;;5073097;28;20120;-63
2023/03/14 06:12:57;;;;;;;18.75;15.95;;;;;;;;;;5086004;22;20070;31
2023/03/14 06:15:23;;;;;;;19.38;16.00;;;;;;;;;;5026296;28;20069;-55
2023/03/14 06:17:49;;;;;;;18.55;16.65;;;;;;;;;;5013494;28;20494;-55
2023/03/14 06:20:15;;;;;;;18.42;16.52;;;;;;;;;;5013723;28;20101;-59
2023/03/14 06:22:41;;;;;;;18.23;16.38;;;;;;;;;;5011849;28;20393;-58
2023/03/14 06:25:08;;;;;;;18.95;16.98;;;;;;;;;;5031146;28;20022;-57
2023/03/14 06:27:34;;;;;;;20.30;18.10;;;;;;;;;;5032736;28;20022;-53
2023/03/14 06:30:00;;;;;;;21.75;19.55;;;;;;;;;;5033016;28;20125;-52
2023/03/14 06:32:26;;;;;;;28.13;25.63;;;;;;;;;;5033375;28;20096;-51
2023/03/14 06:34:53;;;;;;;42.70;39.30;;;;;;;;;;5032817;28;20097;-59
2023/03/14 06:37:19;;;;;;;46.05;42.13;;;;;;;;;;5031992;28;20457;-59
2023/03/14 06:39:45;;;;;;;45.28;41.38;;;;;;;;;;5033111;28;20029;-59
2023/03/14 06:42:11;;;;;;;44.17;40.67;;;;;;;;;;5033116;28;20436;-56
2023/03/14 06:44:37;;;;;;;45.60;41.88;;;;;;;;;;5032615;28;20044;-53
2023/03/14 06:47:03;;;;;;;44.65;40.95;;;;;;;;;;5032782;28;20083;-54
2023/03/14 06:49:29;;;;;;;43.78;40.28;;;;;;;;;;5032717;28;20033;-55
2023/03/14 06:51:57;;;;;;;41.72;38.33;;;;;;;;;;5032518;28;20032;-59
2023/03/14 06:54:23;;;;;;;38.90;35.50;;;;;;;;;;5032678;28;20052;-58
2023/03/14 06:56:49;;;;;;;38.03;35.00;;;;;;;;;;5031406;28;20442;-55
2023/03/14 06:59:16;;;;;;;36.60;33.70;;;;;;;;;;5026501;28;20017;-57
2023/03/14 07:01:42;;;;;;;35.25;32.45;;;;;;;;;;5032473;28;20017;-56
2023/03/14 07:04:08;;;;;;;36.13;33.22;;;;;;;;;;5031060;28;20614;-55
2023/03/14 07:06:35;;;;;;;36.55;33.65;;;;;;;;;;5032297;28;20397;-61
2023/03/14 07:09:01;;;;;;;36.42;33.50;;;;;;;;;;5032515;28;20082;-58
2023/03/14 07:11:27;;;;;;;38.25;35.35;;;;;;;;;;5025893;28;20048;-57
2023/03/14 07:13:53;;;;;;;38.67;35.58;;;;;;;;;;5031613;28;20041;-58
2023/03/14 07:16:19;;;;;;;43.67;39.97;;;;;;;;;;5032174;28;20033;-53
2023/03/14 07:18:45;;;;;;;44.67;41.13;;;;;;;;;;5031937;28;20036;-60
2023/03/14 07:21:12;;;;;;;44.42;40.85;;;;;;;;;;5032397;28;20029;-60
2023/03/14 07:23:38;;;;;;;42.80;39.30;;;;;;;;;;5030018;28;20023;-60
2023/03/14 07:26:04;;;;;;;42.88;39.47;;;;;;;;;;5032150;28;20041;-61
2023/03/14 07:28:30;;;;;;;41.97;38.58;;;;;;;;;;5030639;28;20021;-57
2023/03/14 07:30:56;;;;;;;43.60;40.20;;;;;;;;;;5031788;28;20048;-59
2023/03/14 07:33:23;;;;;;;43.92;40.33;;;;;;;;;;5031973;28;20418;-59
2023/03/14 07:35:49;;;;;;;41.83;38.42;;;;;;;;;;5032193;28;20032;-57
2023/03/14 07:38:15;;;;;;;43.28;39.78;;;;;;;;;;5031419;28;20058;-54
2023/03/14 07:40:41;;;;;;;41.75;38.28;;;;;;;;;;5030135;28;20168;-57
2023/03/14 07:43:07;;;;;;;40.90;37.60;;;;;;;;;;5031444;28;20367;-58
2023/03/14 07:45:33;;;;;;;40.63;37.13;;;;;;;;;;5031772;28;20030;-57
2023/03/14 07:48:01;;;;;;;38.60;35.33;;;;;;;;;;5031574;28;20501;-56
2023/03/14 07:50:28;;;;;;;39.08;35.40;;;;;;;;;;5031386;28;20025;-56
2023/03/14 07:52:55;;;;;;;37.58;34.28;;;;;;;;;;5030544;28;20033;-58
2023/03/14 07:55:21;;;;;;;36.72;33.40;;;;;;;;;;5031113;28;20025;-56
2023/03/14 07:57:47;;;;;;;36.35;33.15;;;;;;;;;;5031282;28;20025;-54
2023/03/14 08:00:14;;;;;;;36.42;33.10;;;;;;;;;;5031738;28;20033;-59
2023/03/14 08:02:40;;;;;;;35.67;32.47;;;;;;;;;;5031725;28;20474;-59
2023/03/14 08:05:07;;;;;;;35.08;31.98;;;;;;;;;;5031581;28;20028;-60
2023/03/14 08:07:33;;;;;;;34.58;31.58;;;;;;;;;;5031840;28;20104;-57
2023/03/14 08:09:59;;;;;;;34.28;31.27;;;;;;;;;;5030087;28;20056;-60
2023/03/14 08:12:25;;;;;;;34.22;31.23;;;;;;;;;;5031388;28;20558;-57
2023/03/14 08:14:51;;;;;;;34.17;31.17;;;;;;;;;;5031296;28;20071;-59
2023/03/14 08:17:17;;;;;;;35.05;32.00;;;;;;;;;;5031504;28;20021;-57
2023/03/14 08:19:43;;;;;;;34.58;31.50;;;;;;;;;;5031438;28;20478;-56
2023/03/14 08:22:09;;;;;;;34.58;31.55;;;;;;;;;;5031436;28;20061;-59
2023/03/14 08:24:35;;;;;;;34.33;31.23;;;;;;;;;;5031310;28;20060;-54
2023/03/14 08:27:01;;;;;;;35.97;32.88;;;;;;;;;;5031344;28;20100;-55
2023/03/14 08:29:27;;;;;;;35.05;32.00;;;;;;;;;;5031537;28;20041;-58
2023/03/14 08:31:54;;;;;;;35.60;32.40;;;;;;;;;;5031388;28;20021;-59
2023/03/14 08:34:21;;;;;;;33.22;30.23;;;;;;;;;;5042086;28;20028;-60
2023/03/14 08:36:46;;;;;;;33.38;30.48;;;;;;;;;;5039475;28;20401;-57
2023/03/14 08:39:13;;;;;;;31.67;28.98;;;;;;;;;;5036683;28;20018;-56
2023/03/14 08:41:41;;;;;;;31.20;28.60;;;;;;;;;;5037941;28;20029;-59
2023/03/14 08:44:07;;;;;;;34.13;31.08;;;;;;;;;;5037461;28;20021;-60
2023/03/14 08:46:34;;;;;;;35.08;32.08;;;;;;;;;;5037878;28;20032;-61
2023/03/14 08:49:00;;;;;;;34.40;31.42;;;;;;;;;;5035569;28;20022;-60
2023/03/14 08:51:26;;;;;;;34.15;31.15;;;;;;;;;;5037575;28;20029;-59
2023/03/14 08:53:52;;;;;;;34.13;31.15;;;;;;;;;;5037355;28;20021;-59
2023/03/14 08:56:18;;;;;;;34.38;31.40;;;;;;;;;;5036393;28;20028;-66
2023/03/14 08:58:44;;;;;;;35.88;32.83;;;;;;;;;;5037461;28;20062;-58
2023/03/14 09:01:11;;;;;;;36.38;33.38;;;;;;;;;;5037544;28;20021;-54
2023/03/14 09:03:37;;;;;;;36.95;33.85;;;;;;;;;;5032867;28;20490;-54
2023/03/14 09:06:06;;;;;;;37.90;34.70;;;;;;;;;;5037934;28;20032;-52
2023/03/14 09:08:33;;;;;;;37.25;33.95;;;;;;;;;;5037185;28;20025;-56
2023/03/14 09:10:59;;;;;;;35.90;32.80;;;;;;;;;;5037001;28;20032;-54
2023/03/14 09:13:25;;;;;;;37.20;34.00;;;;;;;;;;5037274;28;20417;-53
2023/03/14 09:15:55;;;;;;;36.63;33.63;;;;;;;;;;5037394;28;20486;-55
2023/03/14 09:18:22;;;;;;;36.35;33.28;;;;;;;;;;5036373;28;20104;-54
2023/03/14 09:20:48;;;;;;;34.42;31.55;;;;;;;;;;5036447;28;20053;-57
2023/03/14 09:23:15;;;;;;;33.92;31.02;;;;;;;;;;5036194;28;20025;-60
2023/03/14 09:25:41;;;;;;;34.45;31.55;;;;;;;;;;5037722;28;20039;-58
2023/03/14 09:28:07;;;;;;;35.33;32.33;;;;;;;;;;5036368;28;20021;-55
2023/03/14 09:30:33;;;;;;;33.58;30.80;;;;;;;;;;5037585;28;20028;-57
2023/03/14 09:32:59;;;;;;;34.42;31.63;;;;;;;;;;5037327;28;20493;-57
2023/03/14 09:35:25;;;;;;;35.63;32.63;;;;;;;;;;5036933;28;20060;-56
2023/03/14 09:37:52;;;;;;;39.88;36.30;;;;;;;;;;5037317;28;20026;-51
2023/03/14 09:40:19;;;;;;;40.95;37.55;;;;;;;;;;5037145;28;20117;-55
2023/03/14 09:42:46;;;;;;;40.27;37.07;;;;;;;;;;5037055;28;20040;-53
2023/03/14 09:45:15;;;;;;;63.70;58.78;;;;;;;;;;5035296;28;20050;-54
2023/03/14 09:47:41;;;;;;;63.72;59.33;;;;;;;;;;5032824;28;20085;-50
2023/03/14 09:50:11;;;;;;;56.08;52.10;;;;;;;;;;5033985;28;20044;-53
2023/03/14 09:52:41;;;;;;;55.08;51.17;;;;;;;;;;5034161;28;20053;-53
2023/03/14 09:55:11;;;;;;;55.42;51.63;;;;;;;;;;5033972;28;20013;-53
2023/03/14 09:57:38;;;;;;;54.47;50.75;;;;;;;;;;5034152;28;20013;-53
2023/03/14 10:00:14;;;;;;;51.13;47.53;;;;;;;;;;5034003;28;20032;-50
2023/03/14 10:02:40;;;;;;;50.42;46.83;;;;;;;;;;5032453;28;20026;-54
2023/03/14 10:05:14;;;;;;;50.60;47.00;;;;;;;;;;5032243;28;20041;-53
2023/03/14 10:07:40;;;;;;;52.30;48.60;;;;;;;;;;5033882;28;20029;-50
2023/03/14 10:10:11;;;;;;;48.92;45.42;;;;;;;;;;5033605;28;20033;-52
2023/03/14 10:12:38;;;;;;;49.05;45.55;;;;;;;;;;5033605;28;20021;-50
2023/03/14 10:15:07;;;;;;;50.45;46.95;;;;;;;;;;5031909;28;20057;-48
2023/03/14 10:17:39;;;;;;;47.95;44.55;;;;;;;;;;5031942;28;20017;-53
2023/03/14 10:20:05;;;;;;;47.95;44.55;;;;;;;;;;5033356;28;20076;-49
2023/03/14 10:22:32;;;;;;;46.63;43.33;;;;;;;;;;5030394;28;20102;-48
2023/03/14 10:25:01;;;;;;;46.30;43.00;;;;;;;;;;5030875;28;20030;-51
2023/03/14 10:27:32;;;;;;;44.60;41.47;;;;;;;;;;5030057;28;20026;-54
2023/03/14 10:29:59;;;;;;;45.42;42.22;;;;;;;;;;5033004;28;20386;-57
2023/03/14 10:32:46;;;;;;;45.75;42.55;;;;;;;;;;5031244;28;20385;-57
2023/03/14 10:35:12;;;;;;;45.53;42.33;;;;;;;;;;5029517;28;20021;-57
2023/03/14 10:37:48;;;;;;;42.60;39.60;;;;;;;;;;5031683;28;20085;-53
2023/03/14 10:40:14;;;;;;;40.65;37.75;;;;;;;;;;5021605;28;20036;-54
2023/03/14 10:42:44;;;;;;;38.75;35.95;;;;;;;;;;5026573;28;20417;-53
2023/03/14 10:45:26;;;;;;;37.45;34.75;;;;;;;;;;5024486;28;20029;-52
2023/03/14 10:47:52;;;;;;;36.47;33.80;;;;;;;;;;5031539;28;20394;-54
2023/03/14 10:50:26;;;;;;;36.00;33.30;;;;;;;;;;5032732;28;20104;-56
2023/03/14 10:52:53;;;;;;;35.15;32.55;;;;;;;;;;5031361;28;20026;-53
2023/03/14 10:55:20;;;;;;;34.15;31.55;;;;;;;;;;5032784;28;20028;-58
2023/03/14 10:57:46;;;;;;;33.40;30.90;;;;;;;;;;5032100;28;20025;-57
2023/03/14 11:00:17;;;;;;;35.20;32.60;;;;;;;;;;5032767;28;20163;-57
2023/03/14 11:03:06;;;;;;;34.92;32.33;;;;;;;;;;5029392;28;20525;-54
2023/03/14 11:05:38;;;;;;;34.67;32.08;;;;;;;;;;5018943;28;20033;-52
2023/03/14 11:08:10;;;;;;;34.13;31.58;;;;;;;;;;5019835;28;20112;-56
2023/03/14 11:10:40;;;;;;;33.97;31.48;;;;;;;;;;4681279;28;10000314;-55
2023/03/14 11:13:28;;;;;;;32.78;30.27;;;;;;;;;;5023008;28;20029;-57
2023/03/14 11:16:02;;;;;;;31.30;28.90;;;;;;;;;;5028732;28;20036;-52
2023/03/14 11:18:44;;;;;;;30.55;28.15;;;;;;;;;;5029344;28;20325;-57
2023/03/14 11:21:33;;;;;;;29.50;27.10;;;;;;;;;;5024189;28;20021;-54
2023/03/14 11:24:17;;;;;;;29.88;27.48;;;;;;;;;;5017944;28;20041;-59
2023/03/14 11:26:50;;;;;;;29.85;27.45;;;;;;;;;;5009607;28;20350;-57
2023/03/14 11:29:16;;;;;;;29.33;27.02;;;;;;;;;;5016636;28;20026;-53
2023/03/14 11:31:44;;;;;;;28.85;26.55;;;;;;;;;;5029653;28;20031;-53
2023/03/14 11:34:29;;;;;;;28.30;26.10;;;;;;;;;;5029437;28;20083;-56
2023/03/14 11:37:12;;;;;;;27.08;24.88;;;;;;;;;;5028008;28;20025;-56
2023/03/14 11:39:43;;;;;;;27.55;25.35;;;;;;;;;;5008129;28;20030;-56
2023/03/14 11:42:12;;;;;;;28.40;26.10;;;;;;;;;;5008038;28;20080;-57
2023/03/14 11:44:39;;;;;;;;;;;;;;;;;;5009898;28;20538;-53
2023/03/14 11:47:14;;;;;;;27.95;25.75;;;;;;;;;;5009327;28;19936;-59
2023/03/14 11:49:47;;;;;;;27.92;25.73;;;;;;;;;;5009108;28;20038;-57
2023/03/14 11:52:22;;;;;;;28.05;25.85;;;;;;;;;;5009065;28;20654;-57
2023/03/14 11:55:01;;;;;;;26.58;24.27;;;;;;;;;;5014069;28;20448;-53
2023/03/14 11:57:27;;;;;;;25.13;23.02;;;;;;;;;;5028702;28;20115;-54
2023/03/14 11:59:57;;;;;;;21.65;19.75;;;;;;;;;;5028739;28;20093;-53
2023/03/14 12:02:35;;;;;;;21.23;19.33;;;;;;;;;;5028776;28;20045;-54
2023/03/14 12:05:20;;;;;;;19.13;17.33;;;;;;;;;;5028469;28;20859;-57
2023/03/14 12:07:55;;;;;;;19.15;17.35;;;;;;;;;;5028966;28;20025;-59
2023/03/14 12:10:21;;;;;;;19.67;17.88;;;;;;;;;;5028549;28;20034;-58
2023/03/14 12:12:47;;;;;;;19.20;17.40;;;;;;;;;;5029444;28;20032;-59
2023/03/14 12:15:21;;;;;;;17.55;15.85;;;;;;;;;;5084450;22;20108;-65
2023/03/14 12:17:53;;;;;;;16.35;14.65;;;;;;;;;;5046844;28;20021;-65
2023/03/14 12:20:21;;;;;;;15.30;13.27;;;;;;;;;;5070853;28;20593;-66
2023/03/14 12:22:52;;;;;;;15.30;13.15;;;;;;;;;;5052615;28;20067;-64
2023/03/14 12:25:29;;;;;;;15.13;12.95;;;;;;;;;;5070678;28;20104;-65
2023/03/14 12:27:55;;;;;;;15.35;13.50;;;;;;;;;;5053114;28;20076;-65
2023/03/14 12:30:24;;;;;;;16.27;14.57;;;;;;;;;;5052329;28;20082;-65
2023/03/14 12:33:09;;;;;;;15.02;12.50;;;;;;;;;;5052493;28;20388;-65
2023/03/14 12:35:44;;;;;;;14.90;12.38;;;;;;;;;;5052308;28;20031;-64
2023/03/14 12:38:30;;;;;;;15.20;12.85;;;;;;;;;;5070143;28;20056;-65
2023/03/14 12:40:56;;;;;;;14.82;12.13;;;;;;;;;;5052509;28;20103;-64
2023/03/14 12:43:27;;;;;;;15.10;12.50;;;;;;;;;;5070233;28;20441;-65
2023/03/14 12:46:26;;;;;;;14.85;12.02;;;;;;;;;;5052367;28;20028;-64
2023/03/14 12:49:02;;;;;;;14.60;11.57;;;;;;;;;;4998511;28;20396;-65
2023/03/14 12:51:36;;;;;;;14.80;12.10;;;;;;;;;;5069993;28;20481;-66
2023/03/14 12:54:14;;;;;;;14.55;11.45;;;;;;;;;;5051913;28;20388;-66
2023/03/14 12:56:49;;;;;;;14.63;11.55;;;;;;;;;;5069595;28;20017;-66
2023/03/14 12:59:18;;;;;;;14.70;11.82;;;;;;;;;;5069532;28;20028;-67
2023/03/14 13:02:00;;;;;;;14.70;11.85;;;;;;;;;;5069612;28;20469;-62
2023/03/14 13:04:27;;;;;;;15.18;12.75;;;;;;;;;;5068958;28;20101;-64
2023/03/14 13:06:53;;;;;;;15.15;13.00;;;;;;;;;;5069456;28;20020;-64
2023/03/14 13:09:29;;;;;;;15.00;12.50;;;;;;;;;;5069223;28;20032;-64
2023/03/14 13:11:55;;;;;;;14.80;11.90;;;;;;;;;;5025576;28;20026;-64
2023/03/14 13:14:21;;;;;;;15.00;12.55;;;;;;;;;;5030780;28;20080;-63
2023/03/14 13:16:47;;;;;;;14.85;12.05;;;;;;;;;;5054037;28;20032;-64
2023/03/14 13:19:22;;;;;;;14.55;11.30;;;;;;;;;;5068974;28;20016;-64
2023/03/14 13:21:48;;;;;;;15.82;12.13;;;;;;;;;;5071724;28;20104;-65
2023/03/14 13:24:25;;;;;;;14.55;11.27;;;;;;;;;;5073233;28;20493;-66
2023/03/14 13:26:52;;;;;;;14.63;11.60;;;;;;;;;;5072965;28;20366;-65
2023/03/14 13:29:26;;;;;;;14.65;11.55;;;;;;;;;;5045539;28;20048;-66
2023/03/14 13:31:53;;;;;;;14.70;11.70;;;;;;;;;;5047019;28;20029;-65
2023/03/14 13:34:20;;;;;;;14.50;11.23;;;;;;;;;;5033101;28;20028;-66
2023/03/14 13:36:48;;;;;;;14.90;11.93;;;;;;;;;;5033495;28;20093;-64
2023/03/14 13:39:17;;;;;;;14.50;11.20;;;;;;;;;;5053063;28;20515;-67
2023/03/14 13:41:43;;;;;;;;;;;;;;;;;;5034063;28;20075;-66
2023/03/14 13:44:14;;;;;;;14.50;11.23;;;;;;;;;;5041295;28;20668;-66
2023/03/14 13:46:40;;;;;;;15.18;12.35;;;;;;;;;;5041091;28;20029;-69
2023/03/14 13:49:10;;;;;;;14.90;12.10;;;;;;;;;;5052746;28;20370;-66
2023/03/14 13:51:38;;;;;;;14.48;11.07;;;;;;;;;;5048058;28;20029;-65
2023/03/14 13:54:13;;;;;;;14.35;10.77;;;;;;;;;;5052419;28;20065;-63
2023/03/14 13:56:40;;;;;;;14.23;10.50;;;;;;;;;;5052170;28;20021;-65
2023/03/14 13:59:21;;;;;;;15.85;13.00;;;;;;;;;;5051622;28;20413;-68
2023/03/14 14:01:48;;;;;;;14.38;10.70;;;;;;;;;;5051468;28;20453;-63
2023/03/14 14:04:19;;;;;;;14.50;10.95;;;;;;;;;;5047771;28;20035;-66
2023/03/14 14:06:55;;;;;;;14.40;10.70;;;;;;;;;;5033955;28;20392;-65
2023/03/14 14:09:24;;;;;;;14.45;10.98;;;;;;;;;;5048618;28;20098;-64
2023/03/14 14:11:59;;;;;;;14.27;10.45;;;;;;;;;;5049494;28;20026;-65
2023/03/14 14:14:44;;;;;;;14.25;10.50;;;;;;;;;;5048720;28;20366;-64
2023/03/14 14:17:11;;;;;;;14.40;10.75;;;;;;;;;;5054521;28;20461;-64
2023/03/14 14:19:39;;;;;;;14.70;11.50;;;;;;;;;;5052088;28;20032;-64
2023/03/14 14:22:06;;;;;;;14.50;11.07;;;;;;;;;;5052437;28;20025;-64
2023/03/14 14:24:33;;;;;;;14.35;10.77;;;;;;;;;;5050033;28;20059;-64